Atlantic - Newfoundland: Past 24 Hour Conditions

 

St. John's Int'l Airport

09:30 PM NST 27 November 2014
This table is a summary of hourly weather conditions for the past 24 hours.
Date / Time
(NST)
Wind(knots) Conditions Visibility(km) Pressure(kPa) Air tempC) Relative humidity(%) Dew pointC)
27 November 2014
21:30 WSW 32 gust 42 Mostly Cloudy 24 99.4 8 88 6
20:30 SW 29 gust 41 Mostly Cloudy 24 99.4 9 88 7
19:30 WSW 28 gust 44 Mostly Cloudy 24 99.4 10 89 9
18:30 WSW 25 gust 37 Mostly Cloudy 24 99.4 11 92 10
17:30 WSW 24 gust 37 Light Drizzle 24 99.5 13 94 12
16:30 WSW 32 gust 40 Light Drizzle 19 99.6 13 97 13
15:30 SSW 6 Rain 4 99.7 5 100 5
14:30 NNE 5 Rain 0.8 99.8 3 100 3
13:30 E 6 Light Rain 0.8 100.1 4 100 4
12:30 SE 19 gust 26 Light Rain 0.8 100.4 4 100 4
11:30 ESE 19 gust 26 Light Rain 0.4 100.7 3 100 3
10:30 ESE 18 gust 28 Light Drizzle 0.4 101.0 2 99 2
9:30 ESE 21 gust 27 Light Rain 2 101.2 2 99 2
8:30 SE 19 gust 27 Light Rain 5 101.4 2 98 1
7:30 SE 14 gust 22 Light Rain 6 101.5 1 98 1
6:30 ESE 12 gust 19 Light Rain 10 101.7 1 98 1
5:30 ESE 7 Light Rain 16 101.8 1 97 0
4:30 ENE 5 Light Rain 19 101.9 0 96 0
3:30 NNE 3 Light Rain 19 102.1 1 90 0
2:30 E 2 Cloudy 16 102.0 2 83 -1
1:30 NW 6 Cloudy 24 102.1 3 77 -1
0:30 WNW 7 Cloudy 24 102.1 3 76 -1
26 November 2014
23:30 WNW 9 Mostly Cloudy 24 102.1 3 79 0
22:30 WNW 3 Mostly Cloudy 24 102.1 4 88 2
21:30 WSW 8 Mostly Cloudy 24 102.1 4 85 2
 
Map of Atlantic - Newfoundland marine weather areas Southwestern Grand Banks - 44138 Banquereau - 44139 Tail of the Bank - 44140 Nickerson Bank - 44251 Northeast Burgeo Bank - 44255 Blanc-Sablon Airport Cap Whittle Chevery Natashquan Airport Heath Point Miscou Island Grand Étang Ingonish Beach North Mountain St.Paul Island J.A. Douglas McCurdy Sydney Airport Charlottetown Airport East Point North Cape Argentia Bonavista Burgeo Cape Race Corner Brook Daniel's Harbour Englee Ferolle Point La Scie Port aux Basques Rocky Harbour Sagona Island St. Anthony Airport St. John's Int'l Airport St. Lawrence Stephenville Airport Twillingate Winterland Wreckhouse Cartwright Airport Mary's Harbour Grates Cove Pool's Island Marticot Island Long Pond Îles de la Madeleine Airport
Legend: buoyBuoy land stationLand Station